• Join FlightAware (Why Join?)
  • Login
  • US Flag 
06:10PM EDT


 

Airport Tracker/Info


-or-


 

Live Flight TrackerFlight Track Log ✈ JZA8474 ✈ 12-May-2013 ✈ CYCG - CYYC

Flight Track Log - Related Links

Times and Time Zones

All times are in EDT time to prevent confusion due to time zone crossing. See the JZA8474 flight status page for this flight to view local times or setup timezone preferences in your user account.

Time Position Orientation Groundspeed Altitude Reporting Facility
EDT Latitude Longitude Course Direction KTS MPH feet Rate Location/Type
02:50PM 49.1833 -117.6167 49° Northeast 150 173 7,100  Level Vancouver Center
02:51PM 49.2167 -117.5667 44° Northeast 180 207 8,800 1,800 Climbing Vancouver Center
02:52PM 49.2667 -117.5333 24° Northeast 180 207 10,700 1,740 Climbing Vancouver Center
02:53PM 49.6066 -117.1183 45° Northeast  Level FlightAware Approximate
02:53PM 49.3167 -117.4667 41° Northeast 200 230 12,300  Level Vancouver Center
02:54PM 49.6595 -117.0333 49° Northeast  Level FlightAware Approximate
02:54PM 49.3667 -117.4167 33° Northeast 210 242 13,600  Level Vancouver Center
02:55PM 49.7096 -116.9443 49° Northeast  Level FlightAware Approximate
02:55PM 49.4000 -117.3500 52° Northeast 220 253 14,700  Level Vancouver Center
02:56PM 49.4500 -117.3000 33° Northeast 230 265 15,800 1,080 Climbing Vancouver Center
02:57PM 49.5167 -117.2333 33° Northeast 230 265 16,900 960 Climbing Vancouver Center
02:58PM 49.5500 -117.1500 58° Northeast 240 276 17,800 900 Climbing Vancouver Center
02:59PM 49.6000 -117.1000 33° Northeast 240 276 18,800 900 Climbing Vancouver Center
03:00PM 49.6333 -117.0167 58° Northeast 240 276 19,600 720 Climbing Vancouver Center
03:01PM 49.6833 -116.9333 47° Northeast 250 288 20,300 660 Climbing Vancouver Center
03:02PM 49.7500 -116.8667 33° Northeast 250 288 21,000 300 Climbing Vancouver Center
03:03PM 49.7833 -116.7833 58° Northeast 270 311 21,000  Level Vancouver Center
03:04PM 49.8500 -116.6667 48° Northeast 300 345 21,000  Level Vancouver Center
03:05PM 49.9000 -116.5833 47° Northeast 300 345 21,000  Level Vancouver Center
03:06PM 49.9500 -116.5000 47° Northeast 290 334 21,000  Level Vancouver Center
03:07PM 50.0167 -116.3833 48° Northeast 300 345 21,000  Level Vancouver Center
03:08PM 50.0667 -116.3000 47° Northeast 290 334 21,000  Level Vancouver Center
03:09PM 50.1167 -116.2167 47° Northeast 300 345 21,000  Level Vancouver Center
03:10PM 50.1833 -116.1167 44° Northeast 290 334 21,000  Level Vancouver Center
03:11PM 50.2333 -116.0167 52° Northeast 290 334 21,000  Level Vancouver Center
03:12PM 50.2833 -115.9667 33° Northeast 290 334 21,000  Level Edmonton Center
03:13PM 50.3167 -115.8667 62° Northeast 300 345 21,000  Level Edmonton Center
03:14PM 50.4000 -115.7833 33° Northeast 310 357 21,000  Level Edmonton Center
03:15PM 50.4500 -115.6833 52° Northeast 300 345 21,000  Level Edmonton Center
03:16PM 50.5000 -115.6000 47° Northeast 300 345 21,000  Level Edmonton Center
03:17PM 50.5667 -115.4833 48° Northeast 300 345 21,000 -600 Level Edmonton Center
03:18PM 50.6167 -115.3833 52° Northeast 310 357 19,900 -1,380 Descending Edmonton Center
03:19PM 50.6833 -115.2667 48° Northeast 330 380 18,300 -1,560 Descending Edmonton Center
03:20PM 50.7500 -115.1667 43° Northeast 330 380 16,800 -1,500 Descending Edmonton Center
03:21PM 50.8167 -115.0500 48° Northeast 340 391 15,400 -1,080 Descending Edmonton Center
03:23PM 50.8667 -114.8000 72° East 330 380 13,700 -1,020 Descending Edmonton Center
03:24PM 50.9167 -114.6667 59° Northeast 280 322 12,500 -1,320 Descending Edmonton Center
03:25PM 50.9333 -114.5500 77° East 260 299 11,100 -1,260 Descending Edmonton Center
03:26PM 50.9667 -114.4333 66° East 260 299 10,000 -600 Descending Edmonton Center
03:27PM 51.0000 -114.3333 62° Northeast 250 288 10,000 -720 Level Edmonton Center
03:28PM 51.0333 -114.3000 32° Northeast 240 276 8,600 -1,020 Descending Edmonton Center
03:29PM 51.0833 -114.3500 328° Northwest 190 219 8,000 -300 Descending Edmonton Center
03:30PM 51.1000 -114.4167 292° West 200 230 8,100  Climbing Edmonton Center
03:31PM 51.1500 -114.4833 320° Northwest 190 219 8,000  Descending Edmonton Center
03:32PM 51.1833 -114.5333 317° Northwest 200 230 8,100  Climbing Edmonton Center
03:33PM 51.2333 -114.5833 328° Northwest 230 265 8,000 -120 Descending Edmonton Center
03:34PM 51.2333 -114.4667 90° East 230 265 7,900  Descending Edmonton Center
03:35PM 51.2167 -114.3833 108° East 210 242 8,000 -480 Climbing Edmonton Center
03:36PM 51.1833 -114.3000 123° Southeast 200 230 7,000 -1,080 Descending Edmonton Center
03:37PM 51.1500 -114.2333 129° Southeast 190 219 5,900 -900 Descending Edmonton Center
03:38PM 51.1333 -114.1833 118° Southeast 150 173 5,200 -840 Descending Edmonton Center
03:39PM 51.1167 -114.1167 112° Southeast 150 173 4,300 -900 Descending Edmonton Center